Spangle, WA (99031)

11:56 AM PDT on August 23, 2014 (GMT -0700)
RAWS CHENEY WA US | Change Station
CLOSE
Current Station
Personal Weather Station
Location: Cheney, WA
Elevation: 2229 ft
Nearby Weather Stations

Elev 2229 ft 47.42 °N, 117.53 °W | Updated 28 minutes ago

Partly Cloudy
Partly Cloudy
72 °F
Feels Like 77 °F
N
6
Wind Variable Wind from NNE
Gusts 13.0 mph

Today
High -- | Low -- °F
--% Chance of Precip.
Yesterday
High -- | Low -- °F
Precip. -- in
5:56 AM 7:46 PM
Waning Crescent, 3% visible
Pressure 30.12 in
Visibility 10.0 miles
Clouds Few 3000 ft
Few 8000 ft
Few 20000 ft
Heat Index 77 °F
Dew Point 41 °F
Humidity 33%
Rainfall 0.00 in
Snow Depth Not available.
UV 6 out of 12
Pollen 6.70 out of 12
PM2.5 Good
Flu Activity Not available.
METAR KGEG 231753Z 10011G17KT 10SM FEW030 FEW080 FEW200 21/05 A3015 RMK AO2 SLP198 T02060050 10206 20128 51005

More Conditions Fewer Conditions

Pressure 30.12 in
Visibility 10.0 miles
Clouds Few 3000 ft
Few 8000 ft
Few 20000 ft
Heat Index 77 °F
Dew Point 41 °F
Humidity 33%
Rainfall 0.00 in
Snow Depth Not available.
UV 6 out of 12
Pollen 6.70 out of 12
PM2.5 Good
Flu Activity Not available.
METAR KGEG 231753Z 10011G17KT 10SM FEW030 FEW080 FEW200 21/05 A3015 RMK AO2 SLP198 T02060050 10206 20128 51005

More Conditions Fewer Conditions

10-Day Weather Forecast

Almanac

Astronomy

Aug. 23, 2014 Rise Set
Actual Time 5:56 AM PDT 7:46 PM PDT
Civil Twilight 5:23 AM PDT 8:19 PM PDT
Nautical Twilight 4:43 AM PDT 8:59 PM PDT
Astronomical Twilight 3:59 AM PDT 9:43 PM PDT
Moon 4:14 AM PDT 6:34 PM PDT
Length of Visible Light 14h 55m
Length of Day
13h 50m
Tomorrow will be 3m 12s shorter.
Waning Crescent, 3% of the Moon is Illuminated
Today
Waning Crescent
Aug 25
New
Sep 2
First Quarter
Sep 8
Full
Sep 15
Last Quarter

Today's Extremes

State Highs State Lows

Community

WunderPhotos

Upload Photos

1,746,558 photos uploaded!

WunderBlogs® & News

By Dr. Jeff Masters
Director of Meteorology, Weather Underground
By Kari Strenfel
Meteorologist, Weather Underground
By Christopher C. Burt
Weather Historian, Weather Underground
August 23, 2014
August 23, 2014
August 23, 2014

Nearby

Air Quality

  Air Quality AQ Index Pollutant
Yesterday Good
OZONE
Yesterday Good
PM10
Current Good
PM2.5
Saturday Good
PM10
Saturday Good
OZONE
Sunday Good
PM10
Sunday Good
OZONE
Monday Good
PM10
Monday Good
OZONE

Snow Depth

Station Depth Elevation
Quartz Peak 1 in 4700 ft
Sourdough Gulch 0 in 4000 ft
Bunchgrass Meadow 0 in 5000 ft
Spruce Springs 0 in 5700 ft
Touchet 0 in 5530 ft

Earthquake Activity

City Distance Mag. Time & Date
No recent earthquake activity has been reported nearby.
Minimum magnitude displayed is 2.5.

Coastal Water Temperatures

Place Temperature
No Stations Reporting

Nearby Weather Stations